Time;durP1;ratioP1;P1;durP2;ratioP2;P2;SDS_P1;SDS_P2;PMS_P1;PMS_P2;Temp;Humidity;BMP_temperature;BMP_pressure;BME280_temperature;BME280_humidity;BME280_pressure;Samples;Min_cycle;Max_cycle;Signal;HPM_P1;HPM_P2
2022/06/06 00:01:20;;;;;;;20.33;12.40;;;15.30;99.90;;;;;;4992758;28;188102;-68
2022/06/06 00:03:48;;;;;;;17.63;11.35;;;15.30;99.90;;;;;;4972198;28;210439;-68
2022/06/06 00:06:20;;;;;;;20.92;12.68;;;15.30;99.90;;;;;;4982378;28;127039;-68
2022/06/06 00:08:47;;;;;;;20.17;13.63;;;15.20;99.90;;;;;;4978485;28;211460;-68
2022/06/06 00:11:14;;;;;;;20.20;13.18;;;15.20;99.90;;;;;;4991392;28;180623;-69
2022/06/06 00:13:44;;;;;;;18.43;12.47;;;15.20;99.90;;;;;;4980065;28;213474;-69
2022/06/06 00:16:10;;;;;;;18.15;12.40;;;15.20;99.90;;;;;;5000397;28;20048;-70
2022/06/06 00:18:37;;;;;;;17.87;12.43;;;15.20;99.90;;;;;;4976644;28;210564;-70
2022/06/06 00:21:05;;;;;;;18.65;11.43;;;15.20;99.90;;;;;;4981696;28;149071;-69
2022/06/06 00:23:31;;;;;;;17.50;10.93;;;15.20;99.90;;;;;;4970620;28;215997;-68
2022/06/06 00:25:57;;;;;;;15.65;10.90;;;15.10;99.90;;;;;;5019159;28;72551;-69
2022/06/06 00:28:24;;;;;;;17.33;11.52;;;15.20;99.90;;;;;;5015677;28;20076;-69
2022/06/06 00:30:56;;;;;;;18.35;11.20;;;15.10;99.90;;;;;;4934741;28;206445;-70
2022/06/06 00:36:07;;;;;;;15.70;10.25;;;15.10;99.90;;;;;;4947626;28;199140;-70
2022/06/06 00:38:33;;;;;;;17.95;11.98;;;15.10;99.90;;;;;;4963460;28;219935;-70
2022/06/06 00:40:59;;;;;;;17.30;11.50;;;15.10;99.90;;;;;;4990150;28;187588;-70
2022/06/06 00:43:25;;;;;;;16.95;11.40;;;15.10;99.90;;;;;;5006305;28;210307;-70
2022/06/06 00:45:56;;;;;;;16.90;11.00;;;15.10;99.90;;;;;;4971763;28;221413;-70
2022/06/06 00:48:37;;;;;;;17.90;11.68;;;15.10;99.90;;;;;;5016418;28;20070;-71
2022/06/06 00:51:11;;;;;;;17.48;11.30;;;15.10;99.90;;;;;;4940770;28;208641;-71
2022/06/06 00:53:50;;;;;;;17.50;10.60;;;15.00;99.90;;;;;;4971981;28;209165;-72
2022/06/06 00:56:28;;;;;;;15.68;10.75;;;15.00;99.90;;;;;;5008183;28;232500;-71
2022/06/06 00:58:59;;;;;;;17.17;10.80;;;15.00;99.90;;;;;;4974542;28;211411;-70
2022/06/06 01:01:26;;;;;;;;;;;15.00;99.90;;;;;;5004340;28;233514;-70
2022/06/06 01:03:55;;;;;;;15.75;9.77;;;15.00;99.90;;;;;;4981243;28;218153;-70
2022/06/06 01:06:22;;;;;;;16.35;10.00;;;15.00;99.90;;;;;;4987995;28;128373;-70
2022/06/06 01:08:50;;;;;;;14.48;8.90;;;15.00;99.90;;;;;;4967012;28;235830;-69
2022/06/06 01:11:16;;;;;;;18.02;9.80;;;15.00;99.90;;;;;;5004361;28;48947;-69
2022/06/06 01:13:46;;;;;;;16.17;9.45;;;14.90;99.90;;;;;;4968315;28;213199;-69
2022/06/06 01:16:27;;;;;;;14.48;8.43;;;14.90;99.90;;;;;;5004585;28;20050;-69
2022/06/06 01:18:53;;;;;;;23.63;8.15;;;14.90;99.90;;;;;;4967846;28;212524;-69
2022/06/06 01:22:00;;;;;;;16.20;8.40;;;14.80;99.90;;;;;;4968962;28;95129;-70
2022/06/06 01:24:53;;;;;;;13.05;7.75;;;14.80;99.90;;;;;;4959960;28;210091;-70
2022/06/06 01:27:43;;;;;;;12.00;7.55;;;14.80;99.90;;;;;;5026593;28;20491;-70
2022/06/06 01:30:19;;;;;;;12.43;7.80;;;14.70;99.90;;;;;;4976418;28;211203;-70
2022/06/06 01:32:57;;;;;;;12.77;7.80;;;14.70;99.90;;;;;;5026351;28;20042;-70
2022/06/06 01:35:34;;;;;;;12.57;7.22;;;14.70;99.90;;;;;;4964536;28;220943;-72
2022/06/06 01:38:01;;;;;;;11.70;6.60;;;14.70;99.90;;;;;;5046336;28;20115;-72
2022/06/06 01:40:36;;;;;;;12.27;6.07;;;14.60;99.90;;;;;;4978344;28;238709;-71
2022/06/06 01:43:09;;;;;;;13.60;6.65;;;14.60;99.90;;;;;;5039340;28;20049;-71
2022/06/06 01:45:41;;;;;;;11.77;6.32;;;14.60;99.90;;;;;;4952506;28;215426;-71
2022/06/06 01:48:11;;;;;;;10.93;5.80;;;14.60;99.90;;;;;;5022233;28;20049;-71
2022/06/06 01:50:40;;;;;;;11.63;6.05;;;14.60;99.90;;;;;;4939617;28;153402;-72
2022/06/06 01:53:10;;;;;;;11.77;5.85;;;14.60;99.90;;;;;;5020458;28;20058;-71
2022/06/06 01:55:39;;;;;;;10.43;6.37;;;14.60;99.90;;;;;;4962438;28;245244;-72
2022/06/06 01:58:10;;;;;;;10.98;6.07;;;14.60;99.90;;;;;;5047909;28;20064;-72
2022/06/06 02:00:38;;;;;;;12.18;6.20;;;14.50;99.90;;;;;;4973185;28;210936;-72
2022/06/06 02:03:06;;;;;;;12.90;6.40;;;14.50;99.90;;;;;;5029748;28;20053;-71
2022/06/06 02:05:33;;;;;;;12.38;6.45;;;14.50;99.90;;;;;;4949729;28;234657;-70
2022/06/06 02:07:59;;;;;;;11.80;6.57;;;14.40;99.90;;;;;;5024868;28;20053;-71
2022/06/06 02:10:25;;;;;;;12.05;6.70;;;14.40;99.90;;;;;;4948943;28;216969;-71
2022/06/06 02:12:52;;;;;;;11.90;6.30;;;14.40;99.90;;;;;;5021267;28;20064;-71
2022/06/06 02:15:20;;;;;;;12.55;6.75;;;14.30;99.90;;;;;;4953335;28;258197;-71
2022/06/06 02:17:46;;;;;;;13.00;6.50;;;14.30;99.90;;;;;;5041189;28;20060;-72
2022/06/06 02:20:15;;;;;;;11.13;6.07;;;14.30;99.90;;;;;;4967874;28;211374;-71
2022/06/06 02:22:41;;;;;;;11.43;6.32;;;14.30;99.90;;;;;;5026559;28;20482;-71
2022/06/06 02:25:10;;;;;;;11.70;6.78;;;14.30;99.90;;;;;;4981493;28;208985;-71
2022/06/06 02:27:37;;;;;;;13.93;6.95;;;14.30;99.90;;;;;;5035523;28;20069;-72
2022/06/06 02:30:05;;;;;;;13.90;7.28;;;14.30;99.90;;;;;;4952748;28;245686;-72
2022/06/06 02:32:32;;;;;;;13.43;7.40;;;14.30;99.90;;;;;;5023839;28;20519;-72
2022/06/06 02:34:58;;;;;;;13.60;8.15;;;14.20;99.90;;;;;;4962897;28;216530;-71
2022/06/06 02:37:25;;;;;;;14.65;8.40;;;14.20;99.90;;;;;;5030083;28;20410;-71
2022/06/06 02:39:51;;;;;;;14.30;7.97;;;14.20;99.90;;;;;;4967654;28;227968;-72
2022/06/06 02:42:17;;;;;;;16.33;8.27;;;14.20;99.90;;;;;;5016811;28;20112;-71
2022/06/06 02:44:43;;;;;;;15.20;9.02;;;14.20;99.90;;;;;;4969282;28;216513;-71
2022/06/06 02:47:09;;;;;;;13.52;9.20;;;14.20;99.90;;;;;;5006853;28;20064;-72
2022/06/06 02:49:36;;;;;;;17.55;9.23;;;14.20;99.90;;;;;;4967685;28;205429;-72
2022/06/06 02:52:04;;;;;;;16.20;9.25;;;14.20;99.90;;;;;;5027278;28;20833;-71
2022/06/06 02:54:31;;;;;;;17.50;9.60;;;14.20;99.90;;;;;;4960766;28;210018;-71
2022/06/06 02:57:03;;;;;;;18.75;9.65;;;14.20;99.90;;;;;;5006321;28;20062;-71
2022/06/06 02:59:33;;;;;;;16.70;9.60;;;14.20;99.90;;;;;;4964684;28;210177;-72
2022/06/06 03:01:59;;;;;;;14.43;8.57;;;14.20;99.90;;;;;;5015791;28;20068;-71
2022/06/06 03:04:25;;;;;;;13.55;8.20;;;14.20;99.90;;;;;;4941785;28;212998;-72
2022/06/06 03:06:56;;;;;;;14.73;7.82;;;14.20;99.90;;;;;;4990318;28;20487;-72
2022/06/06 03:09:31;;;;;;;;;;;14.20;99.90;;;;;;4967008;28;210281;-72
2022/06/06 03:12:06;;;;;;;14.30;7.40;;;14.20;99.90;;;;;;5019033;28;19928;-72
2022/06/06 03:14:51;;;;;;;13.65;7.50;;;14.20;99.90;;;;;;4962836;28;215220;-71
2022/06/06 03:20:47;;;;;;;11.27;6.90;;;14.20;99.90;;;;;;4944531;28;207688;-71
2022/06/06 03:23:34;;;;;;;12.20;6.63;;;14.20;99.90;;;;;;5023500;28;20060;-71
2022/06/06 03:26:16;;;;;;;11.82;6.22;;;14.20;99.90;;;;;;4960586;28;217534;-71
2022/06/06 03:28:45;;;;;;;11.20;6.30;;;14.20;99.90;;;;;;4978359;28;212525;-70
2022/06/06 03:31:36;;;;;;;10.60;6.05;;;14.20;99.90;;;;;;5006755;28;55406;-69
2022/06/06 03:34:04;;;;;;;10.63;5.22;;;14.20;99.90;;;;;;4971958;28;208139;-70
2022/06/06 03:36:38;;;;;;;10.50;5.28;;;14.20;99.90;;;;;;5009645;28;20060;-70
2022/06/06 03:39:23;;;;;;;10.48;5.05;;;14.20;99.90;;;;;;4953013;28;211062;-70
2022/06/06 03:41:57;;;;;;;9.98;4.47;;;14.30;99.90;;;;;;5014762;28;20057;-70
2022/06/06 03:44:29;;;;;;;10.23;4.95;;;14.20;99.90;;;;;;4963088;28;214639;-69
2022/06/06 03:46:58;;;;;;;11.98;6.18;;;14.30;99.90;;;;;;5016510;28;20048;-69
2022/06/06 03:49:38;;;;;;;14.13;7.80;;;14.30;99.90;;;;;;4962169;28;219330;-69
2022/06/06 03:52:24;;;;;;;14.57;8.70;;;14.30;99.90;;;;;;5027590;28;20049;-70
2022/06/06 03:55:02;;;;;;;17.73;10.52;;;14.20;99.90;;;;;;4962043;28;210878;-71
2022/06/06 03:57:29;;;;;;;19.98;12.07;;;14.20;99.90;;;;;;5020326;28;20053;-70
2022/06/06 03:59:59;;;;;;;18.35;10.82;;;14.20;99.90;;;;;;4946068;28;252752;-70
2022/06/06 04:02:32;;;;;;;21.90;12.25;;;14.20;99.90;;;;;;5027070;28;20057;-70
2022/06/06 04:05:02;;;;;;;20.90;12.23;;;14.10;99.90;;;;;;4939652;28;221491;-69
2022/06/06 04:07:28;;;;;;;18.67;10.88;;;14.10;99.90;;;;;;5020038;28;20049;-70
2022/06/06 04:09:54;;;;;;;21.20;11.93;;;14.10;99.90;;;;;;4955793;28;215284;-69
2022/06/06 04:12:45;;;;;;;21.75;13.07;;;14.00;99.90;;;;;;5026866;28;20057;-69
2022/06/06 04:15:19;;;;;;;21.35;12.10;;;14.10;99.90;;;;;;4951290;28;215578;-69
2022/06/06 04:18:26;;;;;;;18.65;10.77;;;14.00;99.90;;;;;;5035350;28;20543;-70
2022/06/06 04:20:58;;;;;;;19.27;9.80;;;14.00;99.90;;;;;;4934830;28;207139;-69
2022/06/06 04:23:50;;;;;;;18.50;9.30;;;13.90;99.90;;;;;;5016186;28;211317;-69
2022/06/06 04:26:44;;;;;;;17.30;8.98;;;13.90;99.90;;;;;;4986821;28;204880;-70
2022/06/06 04:29:31;;;;;;;18.52;9.07;;;13.90;99.90;;;;;;4961947;28;211295;-70
2022/06/06 04:32:16;;;;;;;16.90;8.38;;;13.80;99.90;;;;;;5023798;28;20041;-71
2022/06/06 04:34:55;;;;;;;18.05;8.95;;;13.80;99.90;;;;;;4963730;28;218333;-70
2022/06/06 04:37:40;;;;;;;16.92;7.88;;;13.80;99.90;;;;;;5020869;28;20052;-70
2022/06/06 04:40:17;;;;;;;14.45;8.43;;;13.80;99.90;;;;;;4960619;28;249673;-70
2022/06/06 04:43:03;;;;;;;16.52;8.70;;;13.70;99.90;;;;;;5021798;28;20060;-71
2022/06/06 04:45:58;;;;;;;19.27;9.13;;;13.70;99.90;;;;;;4970875;28;210708;-70
2022/06/06 04:48:25;;;;;;;20.85;9.38;;;13.80;99.90;;;;;;5014593;28;215101;-70
2022/06/06 04:50:54;;;;;;;17.42;8.98;;;13.70;99.90;;;;;;4951468;28;232398;-70
2022/06/06 04:53:23;;;;;;;20.08;9.50;;;13.70;99.90;;;;;;5022126;28;20057;-70
2022/06/06 04:55:50;;;;;;;18.15;9.57;;;13.60;99.90;;;;;;4961909;28;206798;-71
2022/06/06 04:58:20;;;;;;;20.40;9.80;;;13.70;99.90;;;;;;5005819;28;20049;-70
2022/06/06 05:00:47;;;;;;;21.63;10.02;;;13.60;99.90;;;;;;4937450;28;236139;-70
2022/06/06 05:03:16;;;;;;;22.08;10.68;;;13.70;99.90;;;;;;5020128;28;20081;-70
2022/06/06 05:05:52;;;;;;;20.77;10.88;;;13.70;99.90;;;;;;4950746;28;209041;-70
2022/06/06 05:08:27;;;;;;;23.90;12.77;;;13.60;99.90;;;;;;5001568;28;20049;-71
2022/06/06 05:10:59;;;;;;;23.92;13.07;;;13.60;99.90;;;;;;4946143;28;227714;-70
2022/06/06 05:13:43;;;;;;;27.73;15.05;;;13.60;99.90;;;;;;5000359;28;212477;-72
2022/06/06 05:16:24;;;;;;;30.20;16.38;;;13.60;99.90;;;;;;4979982;28;177843;-70
2022/06/06 05:19:16;;;;;;;29.35;16.83;;;13.60;99.90;;;;;;4970031;28;210173;-71
2022/06/06 05:22:19;;;;;;;28.52;15.75;;;13.70;99.90;;;;;;4927034;28;20057;-69
2022/06/06 05:25:12;;;;;;;27.95;15.68;;;13.70;99.90;;;;;;4891990;28;210443;-70
2022/06/06 05:28:12;;;;;;;24.25;14.20;;;13.60;99.90;;;;;;4970935;28;20058;-70
2022/06/06 05:31:25;;;;;;;26.98;14.88;;;13.70;99.90;;;;;;4887808;28;212169;-70
2022/06/06 05:34:01;;;;;;;25.35;14.85;;;13.70;99.90;;;;;;4845235;29;209933;-70
2022/06/06 05:36:29;;;;;;;26.02;16.60;;;13.70;99.90;;;;;;4863307;29;20121;-69
2022/06/06 05:39:07;;;;;;;32.78;18.15;;;13.70;99.90;;;;;;4842907;29;209188;-70
2022/06/06 05:41:52;;;;;;;30.77;17.92;;;13.60;99.90;;;;;;4891116;29;20048;-70
2022/06/06 05:44:48;;;;;;;31.90;18.35;;;13.60;99.90;;;;;;4828117;29;205730;-69
2022/06/06 05:47:34;;;;;;;29.90;18.70;;;13.60;99.90;;;;;;4900688;29;20064;-70
2022/06/06 05:50:22;;;;;;;29.75;18.30;;;13.70;99.90;;;;;;4826049;29;206500;-70
2022/06/06 05:53:07;;;;;;;27.38;17.42;;;13.60;99.90;;;;;;4897678;29;20394;-69
2022/06/06 05:55:57;;;;;;;27.15;18.38;;;13.60;99.90;;;;;;4811137;29;221612;-70
2022/06/06 05:58:44;;;;;;;27.65;18.30;;;13.60;99.90;;;;;;4890170;28;97005;-68
2022/06/06 06:01:39;;;;;;;24.05;16.60;;;13.60;99.90;;;;;;4887368;28;236865;-70
2022/06/06 06:04:20;;;;;;;26.63;16.20;;;13.60;99.90;;;;;;4862878;29;209290;-70
2022/06/06 06:07:00;;;;;;;22.90;15.10;;;13.70;99.90;;;;;;4908660;29;20055;-71
2022/06/06 06:10:06;;;;;;;28.02;17.20;;;13.70;99.90;;;;;;4960042;28;206890;-71
2022/06/06 06:13:03;;;;;;;24.27;14.70;;;13.70;99.90;;;;;;5023782;28;20720;-69
2022/06/06 06:15:38;;;;;;;23.90;14.20;;;13.70;99.90;;;;;;4954414;28;253077;-70
2022/06/06 06:18:29;;;;;;;19.98;12.38;;;13.80;99.90;;;;;;5022681;28;20050;-69
2022/06/06 06:21:05;;;;;;;21.08;12.73;;;13.70;99.90;;;;;;4877842;28;207699;-69
2022/06/06 06:23:36;;;;;;;20.88;12.77;;;13.70;99.90;;;;;;4897030;28;209762;-70
2022/06/06 06:26:05;;;;;;;22.10;12.68;;;13.70;99.90;;;;;;4872471;29;121396;-69
2022/06/06 06:28:36;;;;;;;23.77;13.32;;;13.80;99.90;;;;;;4888231;28;197434;-69
2022/06/06 06:31:05;;;;;;;;;;;13.80;99.90;;;;;;4911368;28;252082;-69
2022/06/06 06:33:40;;;;;;;21.70;11.82;;;13.80;99.90;;;;;;4879190;28;207505;-69
2022/06/06 06:36:35;;;;;;;17.40;10.40;;;13.80;99.90;;;;;;4915812;28;160265;-69
2022/06/06 06:39:07;;;;;;;16.33;10.73;;;13.80;99.90;;;;;;4879404;28;205874;-69
2022/06/06 06:41:40;;;;;;;18.80;10.27;;;13.90;99.90;;;;;;4907439;28;20306;-70
2022/06/06 06:44:14;;;;;;;17.70;10.02;;;14.00;99.90;;;;;;4875566;28;266616;-69
2022/06/06 06:46:49;;;;;;;18.08;9.85;;;14.00;99.90;;;;;;4931496;28;20413;-70
2022/06/06 06:49:32;;;;;;;21.52;9.55;;;14.00;99.90;;;;;;4887916;28;160850;-69
2022/06/06 06:52:28;;;;;;;14.82;8.52;;;14.10;99.90;;;;;;4945598;28;20058;-70
2022/06/06 06:55:23;;;;;;;16.92;9.75;;;14.30;99.90;;;;;;4869216;28;207054;-68
2022/06/06 06:57:55;;;;;;;16.13;8.60;;;14.50;99.90;;;;;;4907452;28;20057;-69
2022/06/06 07:00:23;;;;;;;20.77;9.40;;;14.60;99.90;;;;;;4881656;28;207473;-70
2022/06/06 07:09:34;;;;;;;15.07;6.80;;;15.10;99.90;;;;;;4868602;28;273199;-69
2022/06/06 07:12:00;;;;;;;14.73;6.05;;;15.30;99.90;;;;;;4921219;28;20493;-69
2022/06/06 07:14:41;;;;;;;14.27;5.38;;;15.50;99.90;;;;;;4883378;28;124262;-69
2022/06/06 07:17:09;;;;;;;12.02;4.47;;;15.90;99.90;;;;;;4931293;28;20051;-70
2022/06/06 07:19:35;;;;;;;11.52;4.53;;;15.90;99.90;;;;;;4870732;28;208869;-69
2022/06/06 07:22:04;;;;;;;12.00;3.80;;;15.80;99.90;;;;;;4900237;29;20058;-69
2022/06/06 07:24:30;;;;;;;9.40;3.70;;;15.90;99.90;;;;;;4891670;28;207510;-69
2022/06/06 07:26:59;;;;;;;10.20;3.17;;;15.80;99.90;;;;;;4917157;29;20819;-69
2022/06/06 07:29:25;;;;;;;11.38;2.63;;;15.80;99.90;;;;;;4877364;28;236284;-70
2022/06/06 07:32:01;;;;;;;7.65;2.42;;;15.80;99.90;;;;;;4938699;28;20059;-70
2022/06/06 07:34:42;;;;;;;9.35;2.88;;;15.70;99.90;;;;;;4898647;28;206261;-71
2022/06/06 07:37:17;;;;;;;9.18;3.20;;;15.70;99.90;;;;;;5000944;28;20262;-70
2022/06/06 07:40:13;;;;;;;9.02;3.10;;;15.70;99.90;;;;;;4945612;28;125615;-69
2022/06/06 07:42:57;;;;;;;9.07;3.05;;;15.80;99.90;;;;;;4993383;28;20060;-69
2022/06/06 07:45:43;;;;;;;8.45;3.20;;;15.80;99.90;;;;;;4957867;28;206984;-69
2022/06/06 07:48:36;;;;;;;10.25;2.80;;;15.90;99.90;;;;;;5023905;28;20053;-70
2022/06/06 07:51:20;;;;;;;10.18;3.40;;;15.70;99.90;;;;;;4933349;28;205777;-69
2022/06/06 07:54:32;;;;;;;9.00;3.40;;;15.60;99.90;;;;;;4975493;28;208720;-69
2022/06/06 07:57:14;;;;;;;8.75;3.38;;;15.80;99.90;;;;;;4905948;28;20058;-69
2022/06/06 08:00:01;;;;;;;10.30;4.30;;;16.00;99.90;;;;;;4903146;28;207680;-70
2022/06/06 08:02:36;;;;;;;10.13;4.03;;;16.40;99.90;;;;;;4957527;28;20054;-70
2022/06/06 08:05:41;;;;;;;9.35;4.05;;;16.80;99.90;;;;;;4937007;28;149847;-70
2022/06/06 08:08:38;;;;;;;11.38;4.20;;;16.80;99.90;;;;;;4964503;28;20062;-71
2022/06/06 08:11:35;;;;;;;9.57;4.20;;;16.60;99.90;;;;;;4867696;28;220327;-70
2022/06/06 08:14:17;;;;;;;10.75;4.38;;;16.40;99.90;;;;;;4860960;29;211849;-69
2022/06/06 08:17:15;;;;;;;11.65;4.75;;;16.20;99.90;;;;;;4911387;29;20059;-70
2022/06/06 08:20:05;;;;;;;11.00;4.32;;;16.20;99.90;;;;;;4851536;29;212894;-69
2022/06/06 08:22:33;;;;;;;10.60;4.82;;;16.50;99.90;;;;;;4886773;29;20059;-69
2022/06/06 08:25:03;;;;;;;10.48;4.30;;;16.70;99.90;;;;;;4860008;28;217045;-70
2022/06/06 08:27:31;;;;;;;12.43;4.50;;;17.20;99.90;;;;;;4893825;29;20102;-70
2022/06/06 08:29:58;;;;;;;12.00;4.65;;;17.50;99.90;;;;;;4860811;28;243443;-69
2022/06/06 08:32:25;;;;;;;14.20;4.47;;;17.40;99.90;;;;;;4891789;29;20585;-70
2022/06/06 08:34:51;;;;;;;10.35;3.67;;;17.50;99.90;;;;;;4906048;28;206439;-69
2022/06/06 08:37:20;;;;;;;12.10;3.42;;;17.60;99.90;;;;;;4984172;28;20392;-71
2022/06/06 08:40:07;;;;;;;8.95;3.00;;;17.60;99.90;;;;;;4897713;28;255367;-69
2022/06/06 08:43:11;;;;;;;8.45;3.00;;;17.50;99.90;;;;;;4973466;28;20200;-69
2022/06/06 08:45:58;;;;;;;11.68;3.67;;;17.30;99.90;;;;;;4901612;28;205072;-70
2022/06/06 08:48:27;;;;;;;9.45;2.75;;;17.10;99.90;;;;;;4948742;28;173237;-70
2022/06/06 08:51:19;;;;;;;8.77;2.75;;;17.50;99.90;;;;;;4945113;28;160405;-71
2022/06/06 08:54:09;;;;;;;10.82;3.30;;;17.80;99.90;;;;;;4976867;28;211865;-70
2022/06/06 08:56:53;;;;;;;9.07;2.80;;;18.20;99.90;;;;;;4976775;28;20054;-71
2022/06/06 08:59:55;;;;;;;9.93;2.63;;;18.30;99.90;;;;;;4947991;28;222181;-72
2022/06/06 09:02:42;;;;;;;10.07;2.10;;;18.70;99.90;;;;;;5023340;28;20072;-71
2022/06/06 09:05:39;;;;;;;8.32;2.42;;;18.60;99.90;;;;;;4950176;28;212916;-72
2022/06/06 09:08:29;;;;;;;8.15;2.40;;;18.90;99.90;;;;;;5022002;28;20053;-72
2022/06/06 09:11:04;;;;;;;11.85;2.08;;;19.40;99.90;;;;;;4951084;28;249122;-73
2022/06/06 09:13:30;;;;;;;8.40;1.80;;;19.30;99.90;;;;;;4975775;28;215183;-72
2022/06/06 09:16:23;;;;;;;7.00;1.48;;;19.10;99.90;;;;;;5009061;28;152717;-71
2022/06/06 09:19:07;;;;;;;8.73;1.60;;;18.90;99.90;;;;;;4986257;28;216923;-72
2022/06/06 09:21:55;;;;;;;6.13;1.60;;;19.00;99.90;;;;;;4988295;28;20076;-72
2022/06/06 09:24:21;;;;;;;9.93;1.60;;;19.00;99.90;;;;;;4950526;28;251772;-73
2022/06/06 09:27:18;;;;;;;8.40;1.73;;;18.90;99.90;;;;;;5002173;28;20057;-72
2022/06/06 09:30:06;;;;;;;8.10;1.70;;;18.70;99.90;;;;;;4959827;28;239355;-74
2022/06/06 09:33:12;;;;;;;10.25;1.80;;;18.50;99.90;;;;;;4923731;28;20051;-74
2022/06/06 09:35:38;;;;;;;8.98;1.70;;;18.30;99.90;;;;;;4831493;29;208509;-73
2022/06/06 09:38:25;;;;;;;9.70;2.05;;;17.90;99.90;;;;;;4948768;28;20051;-76
2022/06/06 09:41:27;;;;;;;8.68;2.10;;;17.80;99.90;;;;;;4884351;29;170461;-76
2022/06/06 09:43:57;;;;;;;9.32;1.80;;;18.10;99.90;;;;;;4876888;29;197082;-73
2022/06/06 09:46:53;;;;;;;7.47;1.63;;;18.00;99.90;;;;;;4899746;29;25797;-76
2022/06/06 09:49:39;;;;;;;9.15;1.67;;;18.00;99.90;;;;;;4856650;28;217292;-75
2022/06/06 09:52:50;;;;;;;7.80;1.30;;;18.30;99.90;;;;;;4902233;29;20052;-75
2022/06/06 10:02:04;;;;;;;8.90;1.33;;;17.70;99.90;;;;;;4870719;28;190027;-74
2022/06/06 10:05:24;;;;;;;6.70;1.45;;;17.30;99.90;;;;;;4783450;29;192091;-73
2022/06/06 10:07:50;;;;;;;6.80;1.40;;;17.30;99.90;;;;;;4766248;30;20059;-73
2022/06/06 10:10:54;;;;;;;7.63;1.58;;;17.10;99.90;;;;;;4726863;29;239241;-76
2022/06/06 10:13:45;;;;;;;11.05;1.63;;;17.20;99.90;;;;;;4757292;29;234324;-73
2022/06/06 10:16:20;;;;;;;8.27;1.63;;;17.40;99.90;;;;;;4790173;29;232503;-75
2022/06/06 10:18:55;;;;;;;7.10;1.50;;;17.80;99.90;;;;;;4776735;29;225584;-75
2022/06/06 10:21:56;;;;;;;8.80;1.58;;;17.90;99.90;;;;;;4816212;29;54605;-78
2022/06/06 10:24:27;;;;;;;9.00;1.45;;;17.80;99.90;;;;;;4734889;29;208441;-75
2022/06/06 10:27:30;;;;;;;8.07;1.60;;;17.60;99.90;;;;;;4792014;29;20062;-75
2022/06/06 10:30:15;;;;;;;10.05;1.65;;;17.40;99.90;;;;;;4763219;29;207168;-75
2022/06/06 10:33:19;;;;;;;10.00;2.10;;;17.40;99.90;;;;;;4781550;29;20066;-75
2022/06/06 10:36:14;;;;;;;10.65;1.90;;;17.30;99.90;;;;;;4762135;29;159836;-75
2022/06/06 10:38:52;;;;;;;7.72;1.60;;;17.30;99.90;;;;;;4737030;29;212174;-73
2022/06/06 10:41:32;;;;;;;8.98;1.85;;;17.50;99.90;;;;;;4805338;29;126582;-74
2022/06/06 10:44:04;;;;;;;8.57;1.85;;;18.00;99.90;;;;;;4841402;29;203490;-75
2022/06/06 10:46:41;;;;;;;7.93;2.08;;;18.40;99.90;;;;;;4852663;29;20475;-75
2022/06/06 10:49:25;;;;;;;8.65;1.83;;;19.00;99.90;;;;;;4843690;29;213946;-74
2022/06/06 10:51:53;;;;;;;11.45;2.28;;;19.20;99.90;;;;;;4877529;29;20051;-73
2022/06/06 10:54:38;;;;;;;11.30;1.95;;;19.40;99.90;;;;;;4845494;29;207473;-74
2022/06/06 10:57:22;;;;;;;7.70;1.55;;;20.10;99.90;;;;;;4895776;29;20074;-73
2022/06/06 11:00:03;;;;;;;7.40;1.60;;;20.00;99.90;;;;;;4899148;28;151453;-75
2022/06/06 11:02:30;;;;;;;8.75;1.75;;;20.10;99.90;;;;;;4958606;28;20047;-72
2022/06/06 11:05:29;;;;;;;7.07;1.60;;;19.60;99.90;;;;;;4886033;28;206855;-73
2022/06/06 11:08:16;;;;;;;6.85;1.60;;;19.60;99.90;;;;;;4949755;28;20051;-73
2022/06/06 11:11:10;;;;;;;7.72;1.40;;;19.30;99.90;;;;;;4883703;28;201720;-73
2022/06/06 11:13:57;;;;;;;7.07;1.40;;;19.40;99.90;;;;;;4897346;28;206022;-73
2022/06/06 11:16:45;;;;;;;6.07;1.30;;;19.80;99.90;;;;;;4999794;28;35572;-72
2022/06/06 11:19:42;;;;;;;7.35;1.30;;;20.00;98.50;;;;;;4961453;28;273881;-73
2022/06/06 11:22:27;;;;;;;7.15;1.60;;;19.90;98.40;;;;;;4944312;28;20066;-74
2022/06/06 11:25:00;;;;;;;8.48;1.65;;;19.60;98.70;;;;;;4890215;28;229071;-72
2022/06/06 11:27:26;;;;;;;8.68;1.80;;;19.10;99.20;;;;;;4957360;28;20074;-72
2022/06/06 11:30:13;;;;;;;7.78;1.70;;;18.60;99.90;;;;;;4897445;28;211202;-72
2022/06/06 11:33:07;;;;;;;8.57;1.90;;;18.30;99.90;;;;;;4942508;28;20059;-72
2022/06/06 11:35:55;;;;;;;9.20;1.80;;;18.20;99.90;;;;;;4892951;28;244423;-72
2022/06/06 11:38:27;;;;;;;7.90;1.83;;;18.00;99.90;;;;;;4964152;28;20440;-73
2022/06/06 11:40:56;;;;;;;7.53;1.60;;;17.70;99.90;;;;;;4859430;28;193646;-75
2022/06/06 11:43:25;;;;;;;9.23;1.40;;;17.60;99.90;;;;;;4962204;28;20128;-72
2022/06/06 11:46:09;;;;;;;7.57;1.50;;;17.50;99.90;;;;;;4882052;28;157787;-71
2022/06/06 11:49:01;;;;;;;8.05;1.73;;;17.70;99.90;;;;;;4922924;28;152964;-70
2022/06/06 11:51:59;;;;;;;8.73;1.75;;;18.20;99.90;;;;;;4925291;28;20050;-71
2022/06/06 11:54:44;;;;;;;7.50;1.60;;;18.80;99.90;;;;;;4904247;28;206767;-71
2022/06/06 11:57:25;;;;;;;7.68;1.60;;;19.20;99.90;;;;;;4952287;28;20106;-69
2022/06/06 12:00:03;;;;;;;6.97;1.60;;;19.30;99.90;;;;;;4947320;28;215487;-70
2022/06/06 12:02:54;;;;;;;6.97;1.60;;;19.10;98.90;;;;;;5024008;28;20052;-69
2022/06/06 12:05:42;;;;;;;9.43;1.70;;;18.90;99.80;;;;;;4938889;28;226590;-69
2022/06/06 12:08:47;;;;;;;6.38;1.40;;;18.70;99.90;;;;;;5024252;28;20479;-68
2022/06/06 12:11:33;;;;;;;6.65;1.20;;;18.80;99.90;;;;;;4880126;28;222126;-70
2022/06/06 12:14:19;;;;;;;7.78;1.38;;;18.90;98.20;;;;;;4915397;28;180940;-68
2022/06/06 12:16:48;;;;;;;4.95;0.90;;;19.20;98.00;;;;;;4911582;28;20066;-68
2022/06/06 12:19:17;;;;;;;7.57;1.20;;;19.60;97.40;;;;;;4879922;28;246136;-71
2022/06/06 12:21:58;;;;;;;8.20;1.00;;;19.50;95.50;;;;;;4930305;28;20053;-68
2022/06/06 12:24:36;;;;;;;5.40;0.90;;;19.40;96.60;;;;;;4876875;28;246253;-70
2022/06/06 12:27:26;;;;;;;4.88;0.98;;;19.40;94.90;;;;;;4944555;28;20039;-69
2022/06/06 12:30:08;;;;;;;7.70;1.00;;;19.40;95.10;;;;;;4882065;28;210152;-70
2022/06/06 12:32:46;;;;;;;5.88;1.00;;;19.60;94.70;;;;;;4935381;28;20061;-69
2022/06/06 12:35:23;;;;;;;7.32;1.10;;;19.50;95.40;;;;;;4898351;28;205869;-71
2022/06/06 12:38:10;;;;;;;5.40;1.00;;;19.50;95.10;;;;;;4939934;28;20481;-71
2022/06/06 12:40:57;;;;;;;5.72;0.98;;;19.50;94.10;;;;;;4884306;28;171080;-69
2022/06/06 12:43:26;;;;;;;6.85;1.02;;;19.30;95.30;;;;;;4944919;28;20058;-69
2022/06/06 12:45:57;;;;;;;9.88;1.08;;;19.10;96.40;;;;;;4873337;28;209179;-68
2022/06/06 12:49:05;;;;;;;5.32;1.00;;;19.00;96.60;;;;;;5016144;28;213791;-70
2022/06/06 12:51:55;;;;;;;4.80;1.00;;;18.70;97.30;;;;;;4979327;28;56529;-69
2022/06/06 12:57:50;;;;;;;5.55;1.20;;;18.10;98.60;;;;;;5027035;28;20406;-70
2022/06/06 13:01:37;;;;;;;7.03;1.33;;;17.70;99.90;;;;;;4980232;28;214006;-70
2022/06/06 13:03:25;;;;;;;8.52;1.52;;;17.30;99.90;;;;;;5030504;28;20049;-73
2022/06/06 13:06:05;;;;;;;7.45;1.80;;;16.90;99.90;;;;;;4953188;28;243854;-73
2022/06/06 13:08:58;;;;;;;7.85;1.90;;;16.50;99.90;;;;;;4970189;28;216347;-72
2022/06/06 13:11:48;;;;;;;8.20;2.10;;;16.40;99.90;;;;;;5014652;28;211249;-72
2022/06/06 13:14:41;;;;;;;9.50;2.30;;;16.30;99.90;;;;;;4967804;28;191992;-71
2022/06/06 13:17:22;;;;;;;6.78;1.80;;;16.30;99.90;;;;;;5020485;28;20049;-70
2022/06/06 13:20:10;;;;;;;9.48;2.45;;;16.20;99.90;;;;;;4985725;28;222495;-72
2022/06/06 13:22:54;;;;;;;7.97;2.33;;;16.20;99.90;;;;;;5027064;28;20046;-72
2022/06/06 13:26:10;;;;;;;10.70;2.30;;;16.20;99.90;;;;;;4984946;28;203598;-69
2022/06/06 13:28:53;;;;;;;7.97;2.10;;;16.20;99.90;;;;;;4919179;28;152248;-71
2022/06/06 13:31:38;;;;;;;8.20;2.15;;;16.10;99.90;;;;;;4922643;28;238767;-71
2022/06/06 13:34:40;;;;;;;7.18;1.98;;;15.90;99.90;;;;;;4902434;28;198720;-72
2022/06/06 13:37:25;;;;;;;9.63;1.90;;;15.80;99.90;;;;;;4930409;29;20067;-70
2022/06/06 13:40:04;;;;;;;5.65;1.60;;;15.70;99.90;;;;;;4869746;28;205975;-73
2022/06/06 13:42:48;;;;;;;6.80;2.22;;;15.60;99.90;;;;;;4925035;29;20070;-71
2022/06/06 13:45:14;;;;;;;7.90;2.13;;;15.50;99.90;;;;;;4893669;28;243779;-74
2022/06/06 13:48:10;;;;;;;11.18;2.80;;;15.50;99.90;;;;;;4908721;29;20043;-71
2022/06/06 13:50:54;;;;;;;9.68;3.03;;;15.30;99.90;;;;;;4865620;28;215898;-71
2022/06/06 13:53:54;;;;;;;9.10;2.80;;;15.10;99.90;;;;;;4909457;29;20054;-73
2022/06/06 13:56:21;;;;;;;7.97;3.08;;;14.90;99.90;;;;;;4852457;29;250125;-71
2022/06/06 13:59:10;;;;;;;10.32;2.60;;;14.80;99.90;;;;;;4878858;28;211297;-71